Time;durP1;ratioP1;P1;durP2;ratioP2;P2;SDS_P1;SDS_P2;PMS_P1;PMS_P2;Temp;Humidity;BMP_temperature;BMP_pressure;BME280_temperature;BME280_humidity;BME280_pressure;Samples;Min_cycle;Max_cycle;Signal;HPM_P1;HPM_P2
2020/12/17 00:01:57;;;;;;;15.60;12.93;;;8.90;68.30;;;;;;5002983;28;20200;-40
2020/12/17 00:04:23;;;;;;;15.93;14.17;;;8.90;68.70;;;;;;5006882;28;20205;-40
2020/12/17 00:06:50;;;;;;;17.10;12.93;;;9.00;68.70;;;;;;5005302;28;20448;-40
2020/12/17 00:09:16;;;;;;;16.30;12.70;;;9.00;68.00;;;;;;5008564;28;20456;-40
2020/12/17 00:11:42;;;;;;;14.40;11.67;;;8.90;67.90;;;;;;5008038;28;20480;-40
2020/12/17 00:14:07;;;;;;;15.93;11.90;;;8.90;68.30;;;;;;5007465;28;20671;-40
2020/12/17 00:16:33;;;;;;;15.57;12.93;;;8.70;68.50;;;;;;5011570;28;20193;-40
2020/12/17 00:18:59;;;;;;;17.30;12.57;;;8.90;68.10;;;;;;5008184;28;21636;-41
2020/12/17 00:21:24;;;;;;;15.90;13.70;;;8.90;68.50;;;;;;5008493;28;20194;-41
2020/12/17 00:23:50;;;;;;;15.80;12.60;;;9.10;67.70;;;;;;5009082;28;20186;-40
2020/12/17 00:26:16;;;;;;;14.37;11.97;;;9.30;66.60;;;;;;5016211;28;20203;-41
2020/12/17 00:28:41;;;;;;;16.40;13.43;;;9.50;65.90;;;;;;5008044;28;20186;-41
2020/12/17 00:31:07;;;;;;;18.70;13.60;;;9.60;65.10;;;;;;5008209;28;20280;-41
2020/12/17 00:33:32;;;;;;;17.10;13.23;;;9.60;64.70;;;;;;5009606;28;20222;-40
2020/12/17 00:35:58;;;;;;;13.90;12.40;;;9.50;64.50;;;;;;5005543;28;20441;-41
2020/12/17 00:38:24;;;;;;;15.77;12.50;;;9.50;64.50;;;;;;5007643;28;20194;-40
2020/12/17 00:40:49;;;;;;;19.10;14.70;;;9.40;65.10;;;;;;5009552;28;20202;-41
2020/12/17 00:43:15;;;;;;;16.73;12.60;;;9.20;65.30;;;;;;5004229;28;20281;-40
2020/12/17 00:45:40;;;;;;;18.80;12.90;;;9.10;65.60;;;;;;5008405;28;20666;-40
2020/12/17 00:48:06;;;;;;;14.03;11.80;;;8.90;66.30;;;;;;5005883;28;20280;-40
2020/12/17 00:50:31;;;;;;;17.07;12.77;;;8.80;67.30;;;;;;5005036;28;20190;-40
2020/12/17 00:52:57;;;;;;;14.30;12.83;;;8.60;67.90;;;;;;5005581;28;20310;-40
2020/12/17 00:55:23;;;;;;;16.67;12.40;;;8.40;68.00;;;;;;5007194;28;20194;-40
2020/12/17 00:57:48;;;;;;;15.77;13.00;;;8.20;69.60;;;;;;5006734;28;20210;-40
2020/12/17 01:00:14;;;;;;;14.90;12.73;;;8.20;69.90;;;;;;5001622;28;20225;-40
2020/12/17 01:02:40;;;;;;;15.93;12.70;;;8.10;70.30;;;;;;5005344;28;20202;-40
2020/12/17 01:05:06;;;;;;;18.27;12.57;;;8.10;70.60;;;;;;5007556;28;20464;-42
2020/12/17 01:07:32;;;;;;;20.57;13.73;;;7.90;70.50;;;;;;5008452;28;20202;-40
2020/12/17 01:09:58;;;;;;;17.60;13.10;;;8.00;70.90;;;;;;5013702;28;20498;-40
2020/12/17 01:12:23;;;;;;;14.70;12.53;;;8.00;70.20;;;;;;5012289;28;20295;-41
2020/12/17 01:14:49;;;;;;;16.10;12.60;;;8.10;70.00;;;;;;5010866;28;20202;-40
2020/12/17 01:17:14;;;;;;;17.00;12.97;;;8.10;69.80;;;;;;5016679;28;20653;-40
2020/12/17 01:19:40;;;;;;;14.73;12.93;;;8.20;69.30;;;;;;5011607;28;20301;-40
2020/12/17 01:22:06;;;;;;;16.03;12.50;;;8.20;69.50;;;;;;5008950;28;20240;-40
2020/12/17 01:24:31;;;;;;;16.90;13.00;;;8.20;69.10;;;;;;5009341;28;20208;-40
2020/12/17 01:26:57;;;;;;;18.63;13.83;;;8.20;69.00;;;;;;5011544;28;20283;-40
2020/12/17 01:29:24;;;;;;;16.00;12.03;;;8.30;69.60;;;;;;5005804;28;20277;-40
2020/12/17 01:31:50;;;;;;;12.80;11.27;;;8.50;67.90;;;;;;5002450;28;20896;-40
2020/12/17 01:34:16;;;;;;;16.23;13.00;;;8.50;67.50;;;;;;5008408;28;20487;-41
2020/12/17 01:36:42;;;;;;;12.97;11.60;;;8.40;68.00;;;;;;5021914;28;20436;-40
2020/12/17 01:39:07;;;;;;;15.97;11.37;;;8.30;68.10;;;;;;5019203;28;20202;-40
2020/12/17 01:41:33;;;;;;;17.33;12.30;;;8.20;68.50;;;;;;5013226;28;20200;-40
2020/12/17 01:44:01;;;;;;;13.60;10.97;;;8.00;69.60;;;;;;5007831;28;20874;-40
2020/12/17 01:46:28;;;;;;;13.33;11.90;;;8.00;69.50;;;;;;5010725;28;20205;-40
2020/12/17 01:48:54;;;;;;;15.30;12.93;;;8.10;69.70;;;;;;5009101;28;20512;-40
2020/12/17 01:51:20;;;;;;;16.60;13.10;;;8.20;69.30;;;;;;5001408;28;21326;-40
2020/12/17 01:53:45;;;;;;;16.30;12.60;;;8.20;68.90;;;;;;5005962;28;20498;-40
2020/12/17 01:56:23;;;;;;;14.80;12.13;;;8.20;69.00;;;;;;5010296;28;20206;-40
2020/12/17 01:59:22;;;;;;;16.57;12.33;;;8.20;68.80;;;;;;5008064;28;20256;-40
2020/12/17 02:01:49;;;;;;;13.20;11.60;;;8.30;68.30;;;;;;5010028;28;20623;-40
2020/12/17 02:04:20;;;;;;;13.80;11.43;;;8.30;67.90;;;;;;5002147;28;20450;-40
2020/12/17 02:06:47;;;;;;;14.20;11.40;;;8.40;67.70;;;;;;5009630;28;21219;-41
2020/12/17 02:09:19;;;;;;;14.33;11.20;;;8.20;67.50;;;;;;5011905;28;20441;-40
2020/12/17 02:11:52;;;;;;;16.10;12.60;;;8.40;67.60;;;;;;5010594;28;20448;-40
2020/12/17 02:14:18;;;;;;;14.83;11.73;;;8.40;67.50;;;;;;5008304;28;20968;-40
2020/12/17 02:16:44;;;;;;;16.00;12.40;;;8.50;66.90;;;;;;5011969;28;20529;-41
2020/12/17 02:19:10;;;;;;;15.50;12.90;;;8.30;66.80;;;;;;5009780;28;21286;-40
2020/12/17 02:21:35;;;;;;;15.50;11.77;;;8.30;66.90;;;;;;5010593;28;20453;-40
2020/12/17 02:24:02;;;;;;;15.10;11.60;;;8.30;66.50;;;;;;5006995;28;20194;-41
2020/12/17 02:26:27;;;;;;;19.33;12.40;;;8.30;66.70;;;;;;5006580;28;20221;-40
2020/12/17 02:28:53;;;;;;;16.77;12.47;;;8.20;66.50;;;;;;5009004;28;20477;-40
2020/12/17 02:31:18;;;;;;;14.57;12.07;;;8.10;67.00;;;;;;5011219;28;20200;-40
2020/12/17 02:33:44;;;;;;;14.50;11.53;;;8.10;67.10;;;;;;5005685;28;20233;-40
2020/12/17 02:36:09;;;;;;;14.17;11.93;;;8.00;67.50;;;;;;5009464;28;20205;-40
2020/12/17 02:38:35;;;;;;;15.87;12.47;;;8.10;67.10;;;;;;5007780;28;20438;-40
2020/12/17 02:41:00;;;;;;;15.00;11.47;;;8.20;67.10;;;;;;5001069;28;20198;-40
2020/12/17 02:43:26;;;;;;;15.80;11.93;;;8.20;66.70;;;;;;5009506;28;20197;-40
2020/12/17 02:45:52;;;;;;;12.90;10.67;;;8.20;66.70;;;;;;5007713;28;20255;-40
2020/12/17 02:48:18;;;;;;;16.40;12.17;;;8.20;66.70;;;;;;5005976;28;20577;-40
2020/12/17 02:50:44;;;;;;;14.27;12.10;;;8.20;66.00;;;;;;5008323;28;20197;-40
2020/12/17 02:53:11;;;;;;;14.53;12.10;;;8.10;66.30;;;;;;5009619;28;20492;-40
2020/12/17 02:55:37;;;;;;;14.07;10.97;;;7.90;66.90;;;;;;5006245;28;20198;-40
2020/12/17 02:58:03;;;;;;;16.13;12.27;;;8.00;67.30;;;;;;5007325;28;20483;-40
2020/12/17 03:00:29;;;;;;;14.57;11.57;;;8.00;66.50;;;;;;5008022;28;21002;-41
2020/12/17 03:02:55;;;;;;;13.23;11.30;;;8.20;67.20;;;;;;5009472;28;20516;-40
2020/12/17 03:05:20;;;;;;;16.90;11.90;;;8.40;65.70;;;;;;5006348;28;20256;-40
2020/12/17 03:07:46;;;;;;;14.60;12.17;;;8.50;64.60;;;;;;5005535;28;20212;-40
2020/12/17 03:10:12;;;;;;;16.60;12.80;;;8.30;65.10;;;;;;5007928;28;20932;-40
2020/12/17 03:12:42;;;;;;;14.10;12.33;;;8.30;65.30;;;;;;5007908;28;20221;-40
2020/12/17 03:15:08;;;;;;;12.13;10.10;;;8.30;65.50;;;;;;5007663;28;20799;-40
2020/12/17 03:17:34;;;;;;;13.77;11.47;;;8.30;65.10;;;;;;5007787;28;20476;-40
2020/12/17 03:20:00;;;;;;;14.27;10.70;;;8.10;65.90;;;;;;5009679;28;20491;-40
2020/12/17 03:22:25;;;;;;;13.17;11.20;;;7.90;66.40;;;;;;5007800;28;20328;-40
2020/12/17 03:24:51;;;;;;;12.87;11.10;;;7.60;67.50;;;;;;5007231;28;20190;-40
2020/12/17 03:27:16;;;;;;;14.00;11.73;;;7.60;68.60;;;;;;5002108;28;20197;-40
2020/12/17 03:29:42;;;;;;;15.53;12.10;;;7.70;68.50;;;;;;5007237;28;20642;-40
2020/12/17 03:32:08;;;;;;;11.70;10.33;;;7.90;68.00;;;;;;5007797;28;20283;-40
2020/12/17 03:34:33;;;;;;;13.93;11.50;;;7.90;67.20;;;;;;5007382;28;20194;-40
2020/12/17 03:36:59;;;;;;;14.20;11.80;;;8.00;66.60;;;;;;5012995;28;20978;-41
2020/12/17 03:39:24;;;;;;;13.70;11.07;;;8.10;66.10;;;;;;5017408;28;20198;-41
2020/12/17 03:41:50;;;;;;;15.00;11.33;;;7.70;66.50;;;;;;5011298;28;20280;-40
2020/12/17 03:44:16;;;;;;;18.80;12.03;;;7.50;67.70;;;;;;5007581;28;20221;-40
2020/12/17 03:46:41;;;;;;;18.80;12.00;;;7.30;68.30;;;;;;5007664;28;20476;-40
2020/12/17 03:49:07;;;;;;;12.20;10.70;;;7.00;69.10;;;;;;5006600;28;20230;-40
2020/12/17 03:51:32;;;;;;;13.93;11.40;;;6.70;70.70;;;;;;5008156;28;20260;-40
2020/12/17 03:53:58;;;;;;;14.27;11.57;;;6.70;71.00;;;;;;5008554;28;20228;-40
2020/12/17 03:56:23;;;;;;;14.60;11.70;;;6.60;72.30;;;;;;5004886;28;20895;-40
2020/12/17 03:58:49;;;;;;;15.67;12.20;;;6.70;72.60;;;;;;5009399;28;20194;-40
2020/12/17 04:01:15;;;;;;;16.40;12.30;;;6.70;72.20;;;;;;5010878;28;20198;-40
2020/12/17 04:03:40;;;;;;;15.23;12.23;;;6.80;71.90;;;;;;5005558;28;20255;-40
2020/12/17 04:06:06;;;;;;;13.77;10.57;;;6.90;71.70;;;;;;5005207;28;20212;-40
2020/12/17 04:08:31;;;;;;;16.70;12.50;;;7.10;70.90;;;;;;5008068;28;20198;-40
2020/12/17 04:10:57;;;;;;;14.03;11.80;;;7.10;70.20;;;;;;5006841;28;20221;-40
2020/12/17 04:13:22;;;;;;;14.40;12.17;;;7.00;69.90;;;;;;5004776;28;20228;-40
2020/12/17 04:15:48;;;;;;;15.77;12.33;;;6.70;70.80;;;;;;5010083;28;20630;-40
2020/12/17 04:18:13;;;;;;;14.53;11.23;;;6.60;71.50;;;;;;5007655;28;20189;-40
2020/12/17 04:20:39;;;;;;;16.57;10.97;;;6.70;72.20;;;;;;5017361;28;20239;-40
2020/12/17 04:23:05;;;;;;;16.07;10.93;;;6.70;72.00;;;;;;5008789;28;20201;-40
2020/12/17 04:25:30;;;;;;;13.27;11.37;;;6.50;72.20;;;;;;5006480;28;20213;-40
2020/12/17 04:27:56;;;;;;;14.60;11.13;;;6.40;72.70;;;;;;5003791;28;20190;-40
2020/12/17 04:30:21;;;;;;;11.90;10.63;;;6.40;72.40;;;;;;5002112;28;20229;-40
2020/12/17 04:32:47;;;;;;;13.43;10.50;;;6.60;72.00;;;;;;5007505;28;20260;-40
2020/12/17 04:35:12;;;;;;;13.33;11.17;;;6.60;71.90;;;;;;5006410;28;20190;-40
2020/12/17 04:37:38;;;;;;;14.17;10.50;;;6.70;72.00;;;;;;5006948;28;20220;-40
2020/12/17 04:40:04;;;;;;;13.60;11.17;;;6.70;71.70;;;;;;5020388;28;20197;-40
2020/12/17 04:42:31;;;;;;;13.17;11.27;;;6.80;71.40;;;;;;5015734;28;20224;-40
2020/12/17 04:44:57;;;;;;;13.83;11.40;;;7.20;70.50;;;;;;5013924;28;20286;-40
2020/12/17 04:47:28;;;;;;;13.50;10.43;;;7.60;68.30;;;;;;5008454;28;20444;-40
2020/12/17 04:50:05;;;;;;;13.50;10.77;;;7.70;67.00;;;;;;5010606;28;21022;-40
2020/12/17 04:52:31;;;;;;;12.70;10.20;;;7.40;67.40;;;;;;5023563;28;20492;-40
2020/12/17 04:54:58;;;;;;;13.60;11.80;;;7.40;68.10;;;;;;5012154;28;20998;-40
2020/12/17 04:57:27;;;;;;;14.40;11.00;;;7.40;68.30;;;;;;5007432;28;20444;-40
2020/12/17 04:59:53;;;;;;;13.90;10.97;;;7.40;67.60;;;;;;5012620;28;20448;-40
2020/12/17 05:02:20;;;;;;;12.40;10.37;;;7.30;67.80;;;;;;5011241;28;20526;-40
2020/12/17 05:04:48;;;;;;;16.70;11.50;;;7.40;67.60;;;;;;5013327;28;20552;-40
2020/12/17 05:07:16;;;;;;;12.60;10.93;;;7.20;67.50;;;;;;5011899;28;20456;-40
2020/12/17 05:09:44;;;;;;;11.30;10.10;;;7.10;68.00;;;;;;5011549;28;20452;-40
2020/12/17 05:12:10;;;;;;;12.70;10.40;;;7.00;68.50;;;;;;5007781;28;21188;-40
2020/12/17 05:14:36;;;;;;;12.47;10.20;;;7.10;68.90;;;;;;5001208;28;20488;-40
2020/12/17 05:17:02;;;;;;;13.70;9.53;;;7.10;68.50;;;;;;5010299;28;20490;-40
2020/12/17 05:19:28;;;;;;;12.80;9.50;;;6.90;69.20;;;;;;5023150;28;20442;-40
2020/12/17 05:21:56;;;;;;;16.47;10.43;;;6.50;70.10;;;;;;5008575;28;20459;-40
2020/12/17 05:24:23;;;;;;;16.27;11.40;;;6.30;71.20;;;;;;5008275;28;20198;-40
2020/12/17 05:26:51;;;;;;;16.27;11.80;;;6.30;71.90;;;;;;5014742;28;20440;-40
2020/12/17 05:29:17;;;;;;;13.23;10.87;;;6.40;72.00;;;;;;5012444;28;20528;-40
2020/12/17 05:31:44;;;;;;;14.13;10.00;;;6.50;71.90;;;;;;5009544;28;20456;-40
2020/12/17 05:34:10;;;;;;;12.67;10.13;;;6.60;71.40;;;;;;5012310;28;20455;-40
2020/12/17 05:36:36;;;;;;;13.43;10.37;;;6.60;71.10;;;;;;5011222;28;20997;-40
2020/12/17 05:39:19;;;;;;;11.23;9.77;;;6.60;70.80;;;;;;5011299;28;20445;-40
2020/12/17 05:41:51;;;;;;;11.67;9.50;;;6.60;70.90;;;;;;4999710;28;20460;-40
2020/12/17 05:44:21;;;;;;;12.40;10.00;;;6.90;70.00;;;;;;5011295;28;20453;-40
2020/12/17 05:46:50;;;;;;;11.30;9.80;;;6.80;69.60;;;;;;5009724;28;20812;-40
2020/12/17 05:49:21;;;;;;;11.73;8.97;;;6.70;69.60;;;;;;5009118;28;20469;-40
2020/12/17 05:51:49;;;;;;;14.37;10.27;;;6.70;69.70;;;;;;5011154;28;21022;-40
2020/12/17 05:54:26;;;;;;;13.10;10.27;;;6.80;69.30;;;;;;5010053;28;20468;-40
2020/12/17 05:57:12;;;;;;;13.70;9.90;;;6.70;68.50;;;;;;5005552;28;20507;-40
2020/12/17 05:59:39;;;;;;;14.43;10.13;;;6.60;69.30;;;;;;5015819;28;20499;-40
2020/12/17 06:02:25;;;;;;;12.30;10.93;;;6.80;69.10;;;;;;5008541;28;20700;-40
2020/12/17 06:05:09;;;;;;;11.70;9.80;;;7.00;68.30;;;;;;5011472;28;20511;-40
2020/12/17 06:07:45;;;;;;;12.90;10.30;;;7.10;67.50;;;;;;5009428;28;20488;-40
2020/12/17 06:10:16;;;;;;;11.57;8.63;;;7.10;67.50;;;;;;5007444;28;20453;-41
2020/12/17 06:12:48;;;;;;;10.40;9.27;;;7.40;68.20;;;;;;5009498;28;20496;-41
2020/12/17 06:15:20;;;;;;;11.37;9.37;;;7.60;70.80;;;;;;5006936;28;20799;-41
2020/12/17 06:17:52;;;;;;;11.67;9.33;;;7.90;70.10;;;;;;5012443;28;20425;-41
2020/12/17 06:20:20;;;;;;;13.77;9.00;;;7.90;68.10;;;;;;5005745;28;20899;-41
2020/12/17 06:22:56;;;;;;;11.30;8.40;;;8.00;67.60;;;;;;5009525;28;20567;-41
2020/12/17 06:25:26;;;;;;;11.13;9.60;;;8.20;66.40;;;;;;5006566;28;20528;-41
2020/12/17 06:27:52;;;;;;;10.43;8.33;;;8.40;65.80;;;;;;5006195;28;20444;-41
2020/12/17 06:30:21;;;;;;;11.33;8.50;;;8.80;65.80;;;;;;5011528;28;20776;-41
2020/12/17 06:32:48;;;;;;;11.90;7.97;;;8.90;63.30;;;;;;5007378;28;20492;-41
2020/12/17 06:35:26;;;;;;;13.23;9.33;;;9.20;63.30;;;;;;5010096;28;21100;-41
2020/12/17 06:37:53;;;;;;;10.83;8.80;;;9.70;62.80;;;;;;5009129;28;20441;-41
2020/12/17 06:40:29;;;;;;;11.40;8.70;;;9.90;61.10;;;;;;5016681;28;20433;-41
2020/12/17 06:42:55;;;;;;;13.80;9.03;;;9.90;60.00;;;;;;5010651;28;20787;-41
2020/12/17 06:45:31;;;;;;;14.50;8.93;;;9.90;59.80;;;;;;5009946;28;20449;-41
2020/12/17 06:47:57;;;;;;;15.30;10.63;;;9.90;59.40;;;;;;5010742;28;20535;-41
2020/12/17 06:50:28;;;;;;;12.47;9.60;;;9.80;58.70;;;;;;5011572;28;20441;-41
2020/12/17 06:53:07;;;;;;;10.87;9.07;;;9.40;59.10;;;;;;5010378;28;20230;-41
2020/12/17 06:55:51;;;;;;;12.20;9.57;;;8.90;60.70;;;;;;5011336;28;20448;-41
2020/12/17 06:58:18;;;;;;;13.47;10.13;;;8.90;61.80;;;;;;5011446;28;21347;-41
2020/12/17 07:00:45;;;;;;;10.93;8.63;;;8.90;61.20;;;;;;5010950;28;20460;-41
2020/12/17 07:03:11;;;;;;;10.17;8.50;;;9.00;62.00;;;;;;5011991;28;21253;-40
2020/12/17 07:05:38;;;;;;;13.30;9.30;;;9.10;63.10;;;;;;5008728;28;20437;-41
2020/12/17 07:08:04;;;;;;;10.97;7.97;;;9.30;61.20;;;;;;5010289;28;20938;-40
2020/12/17 07:10:31;;;;;;;9.03;8.13;;;9.70;60.90;;;;;;5011161;28;20441;-40
2020/12/17 07:12:57;;;;;;;10.37;8.40;;;10.00;58.10;;;;;;5010333;28;20579;-40
2020/12/17 07:15:37;;;;;;;13.50;10.10;;;9.30;58.10;;;;;;5012648;28;20548;-43
2020/12/17 07:18:26;;;;;;;11.40;9.23;;;9.00;58.90;;;;;;5006030;28;20892;-41
2020/12/17 07:21:11;;;;;;;11.40;9.33;;;8.40;61.00;;;;;;5011501;28;20518;-40
2020/12/17 07:23:39;;;;;;;12.07;9.40;;;8.10;62.80;;;;;;5009070;28;20460;-40
2020/12/17 07:26:09;;;;;;;11.73;10.30;;;8.30;63.50;;;;;;5009667;28;20528;-40
2020/12/17 07:28:35;;;;;;;12.20;9.60;;;8.70;62.50;;;;;;5011526;28;20940;-41
2020/12/17 07:31:01;;;;;;;10.40;8.73;;;9.10;60.50;;;;;;5010491;28;20544;-41
2020/12/17 07:33:36;;;;;;;10.90;8.80;;;9.20;60.80;;;;;;5003557;28;20496;-41
2020/12/17 07:36:02;;;;;;;13.77;9.10;;;9.50;60.00;;;;;;4999309;28;20185;-40
2020/12/17 07:38:29;;;;;;;11.70;9.13;;;9.20;59.70;;;;;;5002051;28;20483;-40
2020/12/17 07:40:54;;;;;;;11.83;9.00;;;9.40;60.50;;;;;;5008245;28;20456;-40
2020/12/17 07:43:21;;;;;;;12.57;8.37;;;9.60;59.80;;;;;;4999563;28;20432;-40
2020/12/17 07:45:51;;;;;;;9.77;8.40;;;9.80;59.10;;;;;;5009998;28;20441;-40
2020/12/17 07:48:36;;;;;;;10.70;9.43;;;9.60;59.10;;;;;;5009784;28;20818;-41
2020/12/17 07:51:04;;;;;;;10.83;8.37;;;9.30;59.10;;;;;;5006114;28;20971;-41
2020/12/17 07:53:30;;;;;;;11.43;8.70;;;9.70;60.00;;;;;;5005536;28;20527;-40
2020/12/17 07:55:55;;;;;;;10.43;7.97;;;10.00;58.40;;;;;;5010118;28;20488;-40
2020/12/17 07:58:21;;;;;;;10.00;8.10;;;10.10;57.70;;;;;;5006927;28;20580;-41
2020/12/17 08:00:47;;;;;;;10.40;9.20;;;10.30;57.50;;;;;;5007311;28;20193;-41
2020/12/17 08:03:12;;;;;;;10.23;8.67;;;10.50;57.20;;;;;;5010328;28;20289;-40
2020/12/17 08:05:41;;;;;;;10.70;8.37;;;10.00;57.10;;;;;;5009679;28;20197;-40
2020/12/17 08:08:07;;;;;;;11.23;9.63;;;9.80;59.00;;;;;;5008014;28;20198;-40
2020/12/17 08:10:39;;;;;;;9.50;8.20;;;9.90;59.30;;;;;;5008332;28;20888;-40
2020/12/17 08:13:05;;;;;;;9.70;8.50;;;10.00;57.80;;;;;;5008001;28;20594;-41
2020/12/17 08:15:30;;;;;;;12.13;10.30;;;10.00;57.60;;;;;;5003235;28;20958;-41
2020/12/17 08:17:57;;;;;;;10.57;9.40;;;9.90;58.50;;;;;;5014089;28;20457;-40
2020/12/17 08:20:25;;;;;;;11.37;8.93;;;9.70;59.70;;;;;;5013383;28;20194;-41
2020/12/17 08:22:52;;;;;;;10.33;7.80;;;10.00;59.40;;;;;;5010791;28;20425;-41
2020/12/17 08:25:18;;;;;;;10.60;8.20;;;10.10;63.20;;;;;;5014043;28;20438;-40
2020/12/17 08:27:45;;;;;;;9.57;8.57;;;10.40;60.90;;;;;;5011936;28;20511;-40
2020/12/17 08:30:13;;;;;;;9.97;7.60;;;10.70;59.00;;;;;;5006621;28;20441;-40
2020/12/17 08:32:47;;;;;;;13.73;9.63;;;10.60;58.00;;;;;;5010796;28;20583;-40
2020/12/17 08:35:22;;;;;;;7.07;5.37;;;10.20;58.40;;;;;;5014086;28;20441;-40
2020/12/17 08:37:49;;;;;;;10.00;8.40;;;10.20;65.50;;;;;;5013722;28;20931;-41
2020/12/17 08:40:21;;;;;;;9.97;8.97;;;11.00;59.80;;;;;;5014223;28;20952;-41
2020/12/17 08:42:50;;;;;;;9.60;8.10;;;11.30;57.70;;;;;;5012973;28;20611;-42
2020/12/17 08:45:18;;;;;;;9.37;7.50;;;11.20;56.90;;;;;;5013642;28;20443;-40
2020/12/17 08:47:49;;;;;;;10.00;8.53;;;10.80;57.70;;;;;;5016207;28;20436;-42
2020/12/17 08:50:15;;;;;;;7.90;7.07;;;10.00;59.10;;;;;;5013414;28;20583;-43
2020/12/17 08:52:42;;;;;;;7.00;6.30;;;10.00;61.40;;;;;;5019437;28;20487;-43
2020/12/17 08:55:09;;;;;;;8.80;7.87;;;10.00;61.40;;;;;;5013480;28;21156;-44
2020/12/17 08:57:35;;;;;;;10.50;9.33;;;10.30;60.80;;;;;;5012209;28;20817;-43
2020/12/17 09:00:03;;;;;;;11.90;10.13;;;10.50;60.10;;;;;;5013627;28;20958;-43
2020/12/17 09:02:30;;;;;;;12.97;8.73;;;10.90;58.30;;;;;;5028973;28;20433;-44
2020/12/17 09:05:00;;;;;;;8.47;7.10;;;11.10;57.70;;;;;;5014165;28;20424;-42
2020/12/17 09:07:31;;;;;;;9.97;8.93;;;11.00;57.60;;;;;;5013283;28;20583;-43
2020/12/17 09:10:33;;;;;;;10.57;9.03;;;11.20;58.20;;;;;;5014376;28;20444;-43
2020/12/17 09:12:58;;;;;;;8.00;6.60;;;11.40;57.70;;;;;;5016461;28;20488;-43
2020/12/17 09:15:28;;;;;;;8.80;7.03;;;11.50;58.10;;;;;;5013299;28;20444;-43
2020/12/17 09:18:07;;;;;;;8.23;7.30;;;11.60;57.30;;;;;;5024962;28;20735;-43
2020/12/17 09:20:33;;;;;;;9.80;7.80;;;11.70;56.80;;;;;;5013431;28;20463;-43
2020/12/17 09:23:08;;;;;;;6.77;6.07;;;11.80;56.30;;;;;;5011865;28;20468;-43
2020/12/17 09:25:34;;;;;;;7.90;7.10;;;11.70;56.30;;;;;;5011452;28;20708;-41
2020/12/17 09:28:00;;;;;;;7.00;6.30;;;11.50;56.70;;;;;;5011612;28;20437;-41
2020/12/17 09:30:32;;;;;;;8.67;7.23;;;11.60;57.10;;;;;;5013770;28;21009;-43
2020/12/17 09:33:03;;;;;;;6.90;6.20;;;11.60;57.10;;;;;;5011205;28;20256;-41
2020/12/17 09:35:34;;;;;;;7.20;6.50;;;11.60;56.90;;;;;;5005285;28;20443;-43
2020/12/17 09:37:59;;;;;;;7.40;6.13;;;11.60;56.60;;;;;;5012277;28;20429;-44
2020/12/17 09:40:26;;;;;;;7.57;6.10;;;11.70;56.90;;;;;;5012896;28;20835;-43
2020/12/17 09:43:19;;;;;;;7.90;6.10;;;11.20;57.20;;;;;;5011254;28;20190;-43
2020/12/17 09:45:47;;;;;;;5.47;4.77;;;10.90;58.20;;;;;;5013630;28;20535;-43
2020/12/17 09:48:17;;;;;;;7.70;5.13;;;11.10;58.30;;;;;;5009881;28;20476;-41
2020/12/17 09:51:00;;;;;;;5.13;4.63;;;11.20;58.00;;;;;;5011401;28;20491;-43
2020/12/17 09:53:27;;;;;;;5.93;5.23;;;11.60;58.00;;;;;;5019290;28;20555;-43
2020/12/17 09:55:53;;;;;;;8.93;7.43;;;11.60;57.10;;;;;;5018478;28;20458;-43
2020/12/17 09:58:19;;;;;;;8.37;6.40;;;12.10;56.90;;;;;;5015958;28;20437;-43
2020/12/17 10:00:45;;;;;;;7.13;5.83;;;12.80;56.20;;;;;;5001313;28;20670;-40
2020/12/17 10:03:11;;;;;;;9.03;5.17;;;13.30;54.60;;;;;;5007278;28;20449;-40
2020/12/17 10:05:38;;;;;;;6.73;6.10;;;13.70;53.20;;;;;;5003883;28;20437;-40
2020/12/17 10:08:04;;;;;;;10.20;6.87;;;13.80;53.00;;;;;;5009728;28;20441;-40
2020/12/17 10:10:30;;;;;;;7.83;7.03;;;13.80;52.80;;;;;;5007119;28;20440;-40
2020/12/17 10:12:58;;;;;;;8.27;7.47;;;13.80;52.90;;;;;;5006709;28;20485;-40
2020/12/17 10:15:25;;;;;;;9.27;8.37;;;14.30;52.10;;;;;;5010790;28;20539;-41
2020/12/17 10:17:52;;;;;;;7.90;6.40;;;14.50;51.20;;;;;;5008160;28;20847;-40
2020/12/17 10:20:17;;;;;;;7.07;6.37;;;14.80;50.90;;;;;;5010398;28;20433;-40
2020/12/17 10:22:43;;;;;;;7.30;6.60;;;15.00;50.50;;;;;;5008293;28;20448;-41
2020/12/17 10:25:09;;;;;;;7.43;6.10;;;14.90;50.00;;;;;;5011556;28;20201;-41
2020/12/17 10:27:35;;;;;;;7.13;5.40;;;14.90;50.90;;;;;;5006079;28;20468;-41
2020/12/17 10:30:00;;;;;;;6.63;4.17;;;15.10;50.80;;;;;;5010538;28;22099;-41
2020/12/17 10:32:26;;;;;;;5.07;4.50;;;15.50;50.10;;;;;;5009419;28;20301;-41
2020/12/17 10:34:51;;;;;;;4.83;4.33;;;15.70;49.60;;;;;;5004662;28;20194;-41
2020/12/17 10:37:17;;;;;;;7.03;5.27;;;16.10;48.80;;;;;;5009088;28;20638;-41
2020/12/17 10:39:44;;;;;;;6.40;5.10;;;16.00;48.00;;;;;;5009980;28;20193;-41
2020/12/17 10:42:10;;;;;;;3.97;3.67;;;16.00;48.40;;;;;;5004339;28;20286;-40
2020/12/17 10:44:36;;;;;;;4.20;3.80;;;15.90;48.90;;;;;;5009350;28;20588;-41
2020/12/17 10:47:03;;;;;;;4.33;3.60;;;16.00;48.50;;;;;;5009530;28;20277;-41
2020/12/17 10:49:29;;;;;;;3.37;3.07;;;15.90;48.50;;;;;;5008286;28;20603;-41
2020/12/17 10:51:55;;;;;;;7.97;5.40;;;16.00;48.90;;;;;;5005208;28;21005;-44
2020/12/17 10:54:20;;;;;;;5.70;4.70;;;15.90;48.70;;;;;;5005986;28;20198;-41
2020/12/17 10:56:49;;;;;;;5.73;4.40;;;15.70;49.50;;;;;;5006658;28;20544;-42
2020/12/17 10:59:15;;;;;;;6.13;3.40;;;16.00;49.50;;;;;;5006697;28;20248;-41
2020/12/17 11:01:41;;;;;;;3.10;2.90;;;16.50;48.80;;;;;;5009369;28;21099;-42
2020/12/17 11:04:07;;;;;;;4.23;3.83;;;17.20;47.40;;;;;;5018333;28;20440;-41
2020/12/17 11:06:32;;;;;;;4.73;4.20;;;17.60;46.30;;;;;;5011358;28;20193;-41
2020/12/17 11:08:58;;;;;;;5.37;4.00;;;17.70;45.60;;;;;;5010128;28;20460;-41
2020/12/17 11:11:24;;;;;;;4.10;3.70;;;17.90;45.00;;;;;;5007902;28;20228;-41
2020/12/17 11:13:50;;;;;;;3.50;3.20;;;18.20;45.10;;;;;;5003479;28;20372;-43
2020/12/17 11:16:17;;;;;;;4.10;3.70;;;18.40;44.70;;;;;;5021874;28;20201;-42
2020/12/17 11:18:43;;;;;;;3.87;3.57;;;18.50;44.40;;;;;;5009761;28;20421;-41
2020/12/17 11:21:09;;;;;;;4.20;3.80;;;18.40;44.50;;;;;;5010363;28;20971;-41
2020/12/17 11:23:35;;;;;;;4.57;3.40;;;18.10;44.90;;;;;;5016022;28;20201;-41
2020/12/17 11:26:04;;;;;;;6.43;3.70;;;17.80;45.50;;;;;;5010463;28;20206;-41
2020/12/17 11:28:30;;;;;;;3.80;3.50;;;17.60;46.00;;;;;;5009278;28;20816;-41
2020/12/17 11:30:56;;;;;;;3.67;3.37;;;17.40;46.10;;;;;;5010890;28;20516;-41
2020/12/17 11:33:22;;;;;;;4.63;3.97;;;16.90;46.80;;;;;;5008738;28;20535;-41
2020/12/17 11:35:47;;;;;;;4.13;3.73;;;16.60;47.40;;;;;;5011026;28;20432;-41
2020/12/17 11:38:15;;;;;;;3.60;3.30;;;16.60;47.90;;;;;;5000239;28;20578;-41
2020/12/17 11:40:44;;;;;;;3.30;3.00;;;16.50;48.00;;;;;;5010420;28;20236;-40
2020/12/17 11:43:09;;;;;;;3.80;3.40;;;16.50;48.30;;;;;;5006704;28;20437;-40
2020/12/17 11:45:35;;;;;;;4.43;3.97;;;16.50;48.70;;;;;;5008916;28;20499;-40
2020/12/17 11:48:00;;;;;;;5.90;3.20;;;16.30;49.30;;;;;;5008482;28;20257;-40
2020/12/17 11:50:26;;;;;;;4.40;2.90;;;16.30;49.70;;;;;;5011637;28;20281;-41
2020/12/17 11:52:52;;;;;;;4.63;3.57;;;16.20;49.60;;;;;;5022223;28;20225;-41
2020/12/17 11:55:18;;;;;;;4.03;3.63;;;16.30;49.60;;;;;;5019957;28;20193;-40
2020/12/17 11:57:48;;;;;;;4.23;3.10;;;16.20;49.60;;;;;;5009570;28;20185;-40
2020/12/17 12:00:14;;;;;;;3.10;2.80;;;16.20;50.00;;;;;;5020994;28;20507;-40
2020/12/17 12:02:41;;;;;;;3.30;3.00;;;16.30;50.40;;;;;;5015679;28;20437;-40
2020/12/17 12:05:07;;;;;;;6.93;3.40;;;16.30;50.30;;;;;;5010557;28;20447;-40
2020/12/17 12:07:34;;;;;;;4.07;3.60;;;16.40;50.50;;;;;;5009006;28;20507;-41
2020/12/17 12:09:59;;;;;;;5.87;3.83;;;16.40;50.70;;;;;;5010103;28;20197;-40
2020/12/17 12:12:25;;;;;;;4.70;4.30;;;16.40;51.00;;;;;;5009070;28;20496;-40
2020/12/17 12:14:51;;;;;;;3.73;3.43;;;16.40;50.70;;;;;;5008696;28;20209;-40
2020/12/17 12:17:16;;;;;;;9.73;4.00;;;16.40;50.80;;;;;;5009800;28;20198;-41
2020/12/17 12:19:42;;;;;;;4.23;3.67;;;16.50;51.00;;;;;;5009778;28;20248;-41
2020/12/17 12:22:08;;;;;;;3.40;3.10;;;16.50;50.80;;;;;;5009503;28;20197;-41
2020/12/17 12:24:33;;;;;;;6.47;3.33;;;16.50;50.70;;;;;;5010464;28;20917;-40
2020/12/17 12:26:59;;;;;;;4.60;4.20;;;16.50;50.50;;;;;;5009808;28;20756;-40
2020/12/17 12:29:26;;;;;;;5.70;3.13;;;16.50;50.40;;;;;;5009660;28;20198;-40
2020/12/17 12:31:52;;;;;;;5.73;3.67;;;16.50;50.50;;;;;;5008876;28;20193;-42
2020/12/17 12:34:18;;;;;;;5.33;3.93;;;16.50;50.80;;;;;;5009763;28;20973;-42
2020/12/17 12:36:51;;;;;;;6.70;4.27;;;16.50;50.60;;;;;;5010057;28;20437;-42
2020/12/17 12:39:17;;;;;;;5.13;4.63;;;16.50;50.80;;;;;;5013466;28;20193;-42
2020/12/17 12:41:51;;;;;;;5.23;3.87;;;16.40;51.10;;;;;;5004541;28;20789;-42
2020/12/17 12:44:17;;;;;;;4.60;4.03;;;16.40;51.20;;;;;;5007300;28;20228;-42